createdAt,value
2022-08-14T00:00:56.853Z,20.07
2022-08-14T00:04:02.739Z,20.06
2022-08-14T00:07:29.947Z,20.00
2022-08-14T00:10:52.614Z,20.04
2022-08-14T00:13:58.479Z,20.07
2022-08-14T00:17:03.696Z,20.04
2022-08-14T00:20:12.892Z,20.02
2022-08-14T00:23:22.061Z,20.01
2022-08-14T00:26:29.685Z,19.91
2022-08-14T00:29:40.564Z,19.98
2022-08-14T00:32:56.061Z,19.91
2022-08-14T00:36:35.131Z,19.85
2022-08-14T00:39:28.508Z,19.88
2022-08-14T00:42:55.576Z,19.88
2022-08-14T00:46:05.324Z,19.80
2022-08-14T00:49:14.750Z,19.88
2022-08-14T00:52:20.279Z,19.81
2022-08-14T00:55:27.882Z,19.87
2022-08-14T00:58:35.846Z,19.89
2022-08-14T01:01:50.730Z,19.84
2022-08-14T01:05:00.843Z,19.84
2022-08-14T01:08:06.851Z,19.75
2022-08-14T01:11:35.377Z,19.66
2022-08-14T01:14:41.246Z,19.67
2022-08-14T01:18:04.676Z,19.67
2022-08-14T01:21:15.095Z,19.59
2022-08-14T01:24:30.646Z,19.58
2022-08-14T01:27:53.820Z,19.49
2022-08-14T01:31:05.965Z,19.52
2022-08-14T01:35:17.243Z,19.53
2022-08-14T01:37:44.166Z,19.39
2022-08-14T01:40:52.004Z,19.41
2022-08-14T01:44:02.874Z,19.36
2022-08-14T01:47:21.324Z,19.31
2022-08-14T01:50:27.818Z,19.31
2022-08-14T01:53:35.923Z,19.29
2022-08-14T01:56:44.933Z,19.22
2022-08-14T01:59:50.839Z,19.22
2022-08-14T02:02:58.382Z,19.16
2022-08-14T02:06:32.182Z,19.13
2022-08-14T02:09:35.270Z,19.08
2022-08-14T02:12:44.842Z,19.08
2022-08-14T02:16:00.350Z,19.06
2022-08-14T02:19:31.792Z,19.10
2022-08-14T02:22:47.292Z,19.10
2022-08-14T02:25:54.735Z,19.09
2022-08-14T02:29:04.902Z,18.97
2022-08-14T02:32:11.277Z,18.96
2022-08-14T02:35:40.692Z,19.02
2022-08-14T02:38:46.053Z,18.92
2022-08-14T02:41:57.972Z,18.88
2022-08-14T02:45:06.218Z,18.81
2022-08-14T02:49:01.856Z,18.82
2022-08-14T02:51:41.298Z,18.71
2022-08-14T02:54:46.930Z,18.69
2022-08-14T02:57:58.245Z,18.74
2022-08-14T03:01:11.601Z,18.73
2022-08-14T03:04:17.705Z,18.72
2022-08-14T03:07:25.960Z,18.70
2022-08-14T03:10:33.337Z,18.67
2022-08-14T03:13:40.980Z,18.63
2022-08-14T03:16:49.512Z,18.55
2022-08-14T03:19:56.208Z,18.50
2022-08-14T03:23:04.448Z,18.49
2022-08-14T03:26:13.198Z,18.51
2022-08-14T03:29:24.696Z,18.48
2022-08-14T03:32:34.007Z,18.46
2022-08-14T03:36:05.378Z,18.40
2022-08-14T03:39:14.959Z,18.42
2022-08-14T03:42:36.109Z,18.42
2022-08-14T03:45:48.517Z,18.43
2022-08-14T03:48:55.934Z,18.43
2022-08-14T03:52:07.596Z,18.44
2022-08-14T03:55:23.099Z,18.37
2022-08-14T03:58:35.176Z,18.45
2022-08-14T04:01:45.814Z,18.49
2022-08-14T04:05:12.017Z,18.42
2022-08-14T04:08:29.581Z,18.48
2022-08-14T04:11:38.399Z,18.50
2022-08-14T04:14:43.742Z,18.54
2022-08-14T04:17:51.149Z,18.51
2022-08-14T04:21:02.478Z,18.51
2022-08-14T04:24:10.312Z,18.61
2022-08-14T04:27:19.070Z,18.55
2022-08-14T04:30:32.799Z,18.60
2022-08-14T04:33:38.890Z,18.63
2022-08-14T04:36:59.596Z,18.67
2022-08-14T04:40:23.275Z,18.75
2022-08-14T04:43:40.108Z,18.84
2022-08-14T04:47:06.502Z,18.87
2022-08-14T04:50:11.926Z,18.99
2022-08-14T04:53:23.282Z,19.09
2022-08-14T04:56:34.291Z,19.17
2022-08-14T04:59:39.789Z,19.23
2022-08-14T05:02:48.035Z,19.31
2022-08-14T05:05:55.364Z,19.36
2022-08-14T05:09:02.253Z,19.44
2022-08-14T05:13:10.434Z,19.47
2022-08-14T05:15:36.332Z,19.55
2022-08-14T05:19:17.996Z,19.61
2022-08-14T05:22:17.212Z,19.65
2022-08-14T05:25:25.657Z,19.73
2022-08-14T05:28:37.247Z,19.78
2022-08-14T05:31:42.395Z,19.85
2022-08-14T05:34:47.914Z,19.90
2022-08-14T05:37:53.826Z,19.95
2022-08-14T05:41:02.712Z,20.03
2022-08-14T05:44:12.910Z,20.04
2022-08-14T05:47:18.570Z,20.11
2022-08-14T05:50:24.394Z,20.20
2022-08-14T05:53:33.609Z,20.26
2022-08-14T05:56:40.913Z,20.30
2022-08-14T05:59:46.730Z,20.37
2022-08-14T06:02:52.010Z,20.44
2022-08-14T06:05:57.809Z,20.57
2022-08-14T06:09:02.841Z,20.59
2022-08-14T06:12:10.788Z,20.71
2022-08-14T06:15:17.279Z,20.84
2022-08-14T06:18:25.878Z,20.95
2022-08-14T06:21:37.160Z,21.05
2022-08-14T06:24:44.011Z,21.19
2022-08-14T06:27:51.373Z,21.43
2022-08-14T06:30:57.136Z,21.56
2022-08-14T06:35:03.241Z,21.65
2022-08-14T06:37:28.650Z,21.89
2022-08-14T06:40:36.519Z,22.06
2022-08-14T06:43:46.874Z,22.17
2022-08-14T06:46:54.251Z,22.25
2022-08-14T06:50:00.443Z,22.37
2022-08-14T06:53:05.557Z,22.53
2022-08-14T06:56:13.279Z,22.69
2022-08-14T06:59:20.391Z,22.78
2022-08-14T07:02:45.005Z,22.91
2022-08-14T07:05:57.687Z,23.01
2022-08-14T07:09:04.901Z,23.11
2022-08-14T07:12:54.314Z,23.16
2022-08-14T07:15:42.493Z,23.29
2022-08-14T07:18:50.892Z,23.37
2022-08-14T07:21:56.708Z,23.44
2022-08-14T07:25:01.766Z,23.56
2022-08-14T07:28:12.769Z,23.69
2022-08-14T07:31:26.495Z,23.77
2022-08-14T07:34:40.873Z,23.84
2022-08-14T07:37:49.945Z,23.93
2022-08-14T07:40:59.711Z,23.92
2022-08-14T07:44:32.659Z,23.91
2022-08-14T07:47:32.337Z,24.00
2022-08-14T07:50:39.399Z,24.03
2022-08-14T07:53:44.531Z,24.11
2022-08-14T07:56:55.067Z,24.12
2022-08-14T08:00:01.778Z,24.13
2022-08-14T08:03:18.954Z,24.18
2022-08-14T08:06:29.559Z,24.24
2022-08-14T08:09:36.177Z,24.24
2022-08-14T08:12:42.306Z,24.21
2022-08-14T08:15:50.051Z,24.16
2022-08-14T08:19:02.835Z,24.21
2022-08-14T08:22:11.806Z,24.28
2022-08-14T08:25:18.098Z,24.32
2022-08-14T08:28:27.131Z,24.38
2022-08-14T08:31:35.114Z,24.36
2022-08-14T08:34:49.584Z,24.56
2022-08-14T08:38:01.794Z,24.57
2022-08-14T08:41:19.321Z,24.53
2022-08-14T08:44:34.206Z,24.57
2022-08-14T08:47:41.300Z,24.47
2022-08-14T08:50:48.055Z,24.67
2022-08-14T08:53:59.406Z,24.61
2022-08-14T08:57:12.850Z,24.57
2022-08-14T09:00:25.711Z,24.72
2022-08-14T09:03:32.375Z,24.71
2022-08-14T09:07:00.096Z,24.63
2022-08-14T09:10:17.462Z,24.69
2022-08-14T09:13:27.876Z,24.77
2022-08-14T09:16:36.106Z,24.89
2022-08-14T09:19:41.886Z,24.95
2022-08-14T09:22:50.026Z,24.91
2022-08-14T09:26:00.958Z,24.92
2022-08-14T09:29:07.425Z,24.93
2022-08-14T09:33:09.366Z,25.02
2022-08-14T09:36:27.127Z,24.97
2022-08-14T09:39:55.631Z,25.00
2022-08-14T09:43:13.136Z,25.14
2022-08-14T09:46:21.249Z,25.10
2022-08-14T09:49:39.805Z,25.14
2022-08-14T09:52:55.047Z,25.25
2022-08-14T09:56:04.846Z,25.31
2022-08-14T09:59:22.333Z,25.27
2022-08-14T10:02:31.295Z,25.14
2022-08-14T10:05:39.159Z,25.20
2022-08-14T10:08:50.878Z,25.26
2022-08-14T10:12:00.082Z,25.27
2022-08-14T10:15:18.171Z,25.42
2022-08-14T10:18:28.875Z,25.56
2022-08-14T10:21:38.798Z,25.61
2022-08-14T10:25:00.815Z,25.55
2022-08-14T10:28:08.718Z,25.47
2022-08-14T10:31:43.311Z,25.46
2022-08-14T10:34:52.538Z,25.54
2022-08-14T10:38:07.368Z,25.66
2022-08-14T10:41:16.694Z,25.75
2022-08-14T10:44:29.847Z,25.72
2022-08-14T10:48:09.560Z,25.88
2022-08-14T10:51:08.479Z,25.85
2022-08-14T10:54:16.998Z,25.80
2022-08-14T10:57:51.331Z,25.92
2022-08-14T11:01:01.238Z,25.97
2022-08-14T11:04:08.541Z,26.11
2022-08-14T11:07:21.224Z,26.11
2022-08-14T11:10:28.819Z,26.17
2022-08-14T11:13:34.577Z,26.22
2022-08-14T11:16:41.757Z,26.23
2022-08-14T11:20:01.737Z,26.28
2022-08-14T11:23:09.853Z,26.35
2022-08-14T11:26:19.050Z,26.22
2022-08-14T11:29:26.793Z,26.32
2022-08-14T11:32:34.218Z,26.34
2022-08-14T11:35:47.525Z,26.39
2022-08-14T11:38:54.043Z,26.51
2022-08-14T11:42:00.421Z,26.52
2022-08-14T11:45:29.844Z,26.53
2022-08-14T11:49:04.265Z,26.60
2022-08-14T11:52:12.842Z,26.63
2022-08-14T11:55:25.077Z,26.69
2022-08-14T11:58:34.110Z,26.71
2022-08-14T12:01:41.333Z,26.74
2022-08-14T12:04:52.708Z,26.73
2022-08-14T12:08:02.846Z,26.73
2022-08-14T12:11:14.971Z,26.76
2022-08-14T12:14:29.317Z,26.75
2022-08-14T12:17:49.521Z,26.79
2022-08-14T12:20:59.327Z,26.77
2022-08-14T12:24:08.365Z,26.76
2022-08-14T12:27:16.929Z,26.84
2022-08-14T12:30:39.462Z,26.88
2022-08-14T12:33:57.675Z,26.93
2022-08-14T12:37:09.585Z,26.96
2022-08-14T12:40:20.611Z,26.93
2022-08-14T12:43:26.252Z,27.04
2022-08-14T12:46:37.639Z,27.00
2022-08-14T12:49:52.589Z,26.96
2022-08-14T12:53:13.924Z,27.02
2022-08-14T12:56:33.125Z,27.11
2022-08-14T12:59:42.838Z,27.13
2022-08-14T13:02:55.383Z,27.19
2022-08-14T13:06:01.308Z,27.15
2022-08-14T13:09:11.211Z,27.14
2022-08-14T13:12:33.158Z,27.24
2022-08-14T13:15:40.998Z,27.45
2022-08-14T13:18:47.088Z,27.59
2022-08-14T13:21:58.942Z,27.26
2022-08-14T13:25:15.907Z,27.31
2022-08-14T13:28:30.173Z,27.36
2022-08-14T13:31:40.710Z,27.18
2022-08-14T13:34:52.604Z,27.26
2022-08-14T13:37:58.001Z,27.19
2022-08-14T13:41:06.230Z,27.26
2022-08-14T13:44:13.870Z,27.13
2022-08-14T13:47:20.241Z,27.29
2022-08-14T13:50:25.967Z,27.38
2022-08-14T13:53:33.264Z,27.35
2022-08-14T13:56:42.386Z,27.35
2022-08-14T13:59:51.219Z,27.29
2022-08-14T14:02:57.134Z,27.36
2022-08-14T14:06:04.402Z,27.19
2022-08-14T14:09:12.209Z,27.23
2022-08-14T14:12:37.609Z,27.20
2022-08-14T14:15:57.754Z,27.12
2022-08-14T14:19:09.480Z,27.10
2022-08-14T14:22:44.959Z,27.15
2022-08-14T14:25:51.191Z,27.15
2022-08-14T14:29:04.846Z,27.17
2022-08-14T14:32:11.426Z,27.08
2022-08-14T14:35:32.750Z,27.19
2022-08-14T14:38:44.429Z,27.13
2022-08-14T14:41:56.457Z,27.07
2022-08-14T14:45:15.510Z,27.06
2022-08-14T14:48:20.915Z,27.11
2022-08-14T14:51:33.546Z,27.05
2022-08-14T14:54:39.150Z,27.00
2022-08-14T14:57:45.409Z,26.97
2022-08-14T15:01:00.555Z,26.98
2022-08-14T15:04:19.833Z,26.96
2022-08-14T15:07:26.155Z,26.87
2022-08-14T15:10:38.224Z,26.76
2022-08-14T15:13:52.944Z,26.69
2022-08-14T15:17:00.470Z,26.60
2022-08-14T15:20:09.787Z,26.62
2022-08-14T15:23:23.253Z,26.53
2022-08-14T15:26:31.609Z,26.57
2022-08-14T15:29:43.173Z,26.57
2022-08-14T15:32:50.083Z,26.64
2022-08-14T15:35:55.441Z,26.50
2022-08-14T15:39:05.425Z,26.59
2022-08-14T15:42:14.536Z,26.54
2022-08-14T15:45:21.644Z,26.51
2022-08-14T15:48:29.597Z,26.45
2022-08-14T15:51:35.310Z,26.31
2022-08-14T15:54:47.969Z,26.33
2022-08-14T15:58:03.155Z,26.37
2022-08-14T16:01:43.595Z,26.22
2022-08-14T16:04:51.800Z,26.18
2022-08-14T16:07:57.302Z,26.07
2022-08-14T16:11:07.051Z,26.06
2022-08-14T16:14:12.706Z,25.94
2022-08-14T16:17:26.458Z,25.97
2022-08-14T16:20:44.268Z,25.95
2022-08-14T16:23:52.949Z,25.90
2022-08-14T16:27:00.966Z,25.86
2022-08-14T16:30:12.282Z,25.87
2022-08-14T16:34:00.149Z,25.88
2022-08-14T16:36:59.407Z,25.75
2022-08-14T16:40:06.042Z,25.70
2022-08-14T16:43:17.909Z,25.73
2022-08-14T16:46:24.781Z,25.67
2022-08-14T16:50:03.147Z,25.66
2022-08-14T16:53:00.948Z,25.67
2022-08-14T16:56:23.005Z,25.59
2022-08-14T16:59:30.469Z,25.48
2022-08-14T17:03:03.946Z,25.30
2022-08-14T17:06:25.645Z,25.27
2022-08-14T17:09:43.223Z,25.30
2022-08-14T17:12:48.885Z,25.31
2022-08-14T17:16:10.547Z,25.25
2022-08-14T17:19:40.181Z,25.11
2022-08-14T17:22:52.892Z,24.91
2022-08-14T17:26:01.051Z,24.94
2022-08-14T17:29:12.503Z,25.02
2022-08-14T17:32:28.159Z,24.88
2022-08-14T17:35:57.506Z,24.87
2022-08-14T17:39:07.282Z,24.77
2022-08-14T17:42:14.092Z,24.74
2022-08-14T17:45:27.086Z,24.72
2022-08-14T17:49:16.302Z,24.64
2022-08-14T17:52:07.699Z,24.61
2022-08-14T17:56:02.453Z,24.48
2022-08-14T17:58:42.863Z,24.34
2022-08-14T18:01:49.673Z,24.25
2022-08-14T18:04:55.658Z,24.24
2022-08-14T18:08:32.019Z,24.26
2022-08-14T18:11:45.909Z,24.05
2022-08-14T18:14:53.358Z,24.15
2022-08-14T18:17:59.168Z,23.97
2022-08-14T18:21:40.623Z,24.01
2022-08-14T18:24:31.890Z,23.99
2022-08-14T18:27:41.715Z,23.86
2022-08-14T18:30:58.695Z,23.81
2022-08-14T18:34:31.282Z,23.65
2022-08-14T18:37:38.838Z,23.71
2022-08-14T18:40:44.306Z,23.60
2022-08-14T18:43:59.550Z,23.50
2022-08-14T18:47:26.171Z,23.39
2022-08-14T18:50:32.454Z,23.29
2022-08-14T18:53:56.987Z,23.28
2022-08-14T18:57:05.356Z,23.28
2022-08-14T19:00:52.698Z,23.22
2022-08-14T19:04:01.452Z,23.23
2022-08-14T19:07:17.547Z,23.21
2022-08-14T19:10:37.244Z,23.12
2022-08-14T19:13:44.553Z,23.04
2022-08-14T19:16:54.371Z,23.08
2022-08-14T19:20:08.069Z,23.03
2022-08-14T19:23:21.330Z,22.94
2022-08-14T19:26:36.818Z,22.87
2022-08-14T19:30:24.160Z,22.78
2022-08-14T19:33:51.934Z,22.81
2022-08-14T19:37:05.894Z,22.73
2022-08-14T19:40:19.276Z,22.69
2022-08-14T19:43:55.505Z,22.53
2022-08-14T19:47:01.277Z,22.57
2022-08-14T19:50:30.976Z,22.38
2022-08-14T19:53:51.029Z,22.33
2022-08-14T19:57:02.226Z,22.39
2022-08-14T20:00:29.519Z,22.34
2022-08-14T20:04:00.375Z,22.31
2022-08-14T20:07:09.065Z,22.28
2022-08-14T20:11:11.388Z,22.27
2022-08-14T20:14:04.017Z,22.14
2022-08-14T20:17:19.123Z,22.15
2022-08-14T20:20:32.007Z,22.14
2022-08-14T20:23:38.895Z,22.06
2022-08-14T20:26:47.113Z,22.00
2022-08-14T20:30:33.861Z,21.98
2022-08-14T20:33:47.896Z,21.97
2022-08-14T20:37:04.567Z,21.95
2022-08-14T20:40:23.431Z,21.89
2022-08-14T20:43:53.179Z,21.81
2022-08-14T20:47:01.007Z,21.70
2022-08-14T20:50:16.728Z,21.74
2022-08-14T20:53:35.707Z,21.60
2022-08-14T20:56:44.038Z,21.54
2022-08-14T20:59:53.111Z,21.59
2022-08-14T21:03:00.973Z,21.58
2022-08-14T21:06:19.376Z,21.43
2022-08-14T21:09:43.730Z,21.47
2022-08-14T21:13:26.100Z,21.53
2022-08-14T21:16:30.774Z,21.55
2022-08-14T21:19:43.926Z,21.49
2022-08-14T21:23:00.595Z,21.38
2022-08-14T21:26:08.052Z,21.33
2022-08-14T21:29:14.597Z,21.30
2022-08-14T21:32:34.038Z,21.21
2022-08-14T21:35:46.585Z,21.21
2022-08-14T21:38:52.381Z,21.21
2022-08-14T21:41:59.711Z,21.12
2022-08-14T21:45:09.084Z,21.10
2022-08-14T21:48:16.825Z,21.10
2022-08-14T21:51:53.809Z,21.00
2022-08-14T21:54:51.539Z,21.10
2022-08-14T21:58:51.474Z,21.10
2022-08-14T22:01:23.840Z,21.13
2022-08-14T22:04:34.230Z,21.10
2022-08-14T22:07:42.022Z,21.10
2022-08-14T22:10:51.508Z,21.14
2022-08-14T22:14:02.304Z,21.04
2022-08-14T22:17:23.763Z,21.01
2022-08-14T22:20:29.550Z,21.04
2022-08-14T22:23:36.512Z,21.04
2022-08-14T22:26:44.904Z,20.99
2022-08-14T22:29:54.932Z,20.96
2022-08-14T22:33:05.918Z,20.94
2022-08-14T22:36:42.349Z,20.92
2022-08-14T22:40:51.735Z,20.90
2022-08-14T22:43:19.742Z,20.84
2022-08-14T22:46:25.652Z,20.87
2022-08-14T22:50:31.743Z,20.76
2022-08-14T22:52:59.974Z,20.71
2022-08-14T22:56:07.225Z,20.68
2022-08-14T22:59:36.888Z,20.69
2022-08-14T23:02:46.749Z,20.67
2022-08-14T23:05:54.501Z,20.62
2022-08-14T23:09:02.087Z,20.60
2022-08-14T23:12:29.641Z,20.57
2022-08-14T23:15:37.433Z,20.58
2022-08-14T23:18:44.510Z,20.53
2022-08-14T23:21:53.005Z,20.50
2022-08-14T23:24:59.954Z,20.43
2022-08-14T23:28:06.661Z,20.49
2022-08-14T23:31:36.062Z,20.47
2022-08-14T23:34:48.216Z,20.37
2022-08-14T23:37:58.422Z,20.38
2022-08-14T23:41:12.746Z,20.38
2022-08-14T23:44:24.583Z,20.38
2022-08-14T23:47:51.989Z,20.37
2022-08-14T23:51:00.080Z,20.35
2022-08-14T23:54:06.179Z,20.40
2022-08-14T23:57:31.162Z,20.32
